createdAt,value
2022-11-10T00:01:16.905Z,6.93
2022-11-10T00:04:05.954Z,6.87
2022-11-10T00:06:47.879Z,6.81
2022-11-10T00:09:41.849Z,6.74
2022-11-10T00:12:35.855Z,6.67
2022-11-10T00:15:47.859Z,6.65
2022-11-10T00:18:34.869Z,6.63
2022-11-10T00:21:20.860Z,6.57
2022-11-10T00:24:07.867Z,6.52
2022-11-10T00:26:40.942Z,6.47
2022-11-10T00:29:28.869Z,6.43
2022-11-10T00:32:01.924Z,6.39
2022-11-10T00:34:48.840Z,6.34
2022-11-10T00:37:21.959Z,6.28
2022-11-10T00:40:08.877Z,6.22
2022-11-10T00:42:48.858Z,6.19
2022-11-10T00:45:35.870Z,6.14
2022-11-10T00:48:15.862Z,6.10
2022-11-10T00:51:09.878Z,6.05
2022-11-10T00:53:56.861Z,5.99
2022-11-10T00:56:30.991Z,5.97
2022-11-10T00:59:17.889Z,5.95
2022-11-10T01:01:50.999Z,5.93
2022-11-10T01:04:37.869Z,5.90
2022-11-10T01:07:17.876Z,5.86
2022-11-10T01:10:11.884Z,5.84
2022-11-10T01:12:58.867Z,5.80
2022-11-10T01:15:31.947Z,5.78
2022-11-10T01:18:18.884Z,5.74
2022-11-10T01:20:56.942Z,5.71
2022-11-10T01:23:43.892Z,5.70
2022-11-10T01:26:16.970Z,5.66
2022-11-10T01:29:03.890Z,5.63
2022-11-10T01:31:37.957Z,5.60
2022-11-10T01:34:24.897Z,5.60
2022-11-10T01:36:57.953Z,5.60
2022-11-10T01:39:44.877Z,5.58
2022-11-10T01:42:17.987Z,5.57
2022-11-10T01:45:29.880Z,5.56
2022-11-10T01:48:14.899Z,5.53
2022-11-10T01:51:03.880Z,5.53
2022-11-10T01:53:41.952Z,5.53
2022-11-10T01:56:29.884Z,5.52
2022-11-10T01:59:13.895Z,5.48
2022-11-10T02:02:11.883Z,5.49
2022-11-10T02:05:05.890Z,5.49
2022-11-10T02:07:52.932Z,5.50
2022-11-10T02:10:27.961Z,5.48
2022-11-10T02:13:14.910Z,5.50
2022-11-10T02:16:08.902Z,5.53
2022-11-10T02:18:55.894Z,5.56
2022-11-10T02:21:28.962Z,5.57
2022-11-10T02:24:15.892Z,5.60
2022-11-10T02:27:01.898Z,5.63
2022-11-10T02:29:48.905Z,5.62
2022-11-10T02:32:21.964Z,5.67
2022-11-10T02:35:08.923Z,5.70
2022-11-10T02:37:48.913Z,5.72
2022-11-10T02:40:42.928Z,5.71
2022-11-10T02:43:29.919Z,5.72
2022-11-10T02:46:03.152Z,5.76
2022-11-10T02:48:49.923Z,5.78
2022-11-10T02:51:22.996Z,5.79
2022-11-10T02:54:09.970Z,5.80
2022-11-10T02:56:43.009Z,5.80
2022-11-10T02:59:29.944Z,5.82
2022-11-10T03:02:02.997Z,5.84
2022-11-10T03:04:49.901Z,5.88
2022-11-10T03:07:22.983Z,5.88
2022-11-10T03:10:09.908Z,5.91
2022-11-10T03:12:43.038Z,5.91
2022-11-10T03:15:29.930Z,5.93
2022-11-10T03:18:18.913Z,5.94
2022-11-10T03:21:12.929Z,5.97
2022-11-10T03:23:59.908Z,5.98
2022-11-10T03:26:32.991Z,5.98
2022-11-10T03:29:19.922Z,5.99
2022-11-10T03:31:59.936Z,6.01
2022-11-10T03:34:53.935Z,6.05
2022-11-10T03:37:47.927Z,6.09
2022-11-10T03:41:12.082Z,6.14
2022-11-10T03:43:41.915Z,6.15
2022-11-10T03:46:22.962Z,6.14
2022-11-10T03:48:56.008Z,6.17
2022-11-10T03:51:42.954Z,6.16
2022-11-10T03:54:16.084Z,6.16
2022-11-10T03:57:02.924Z,6.19
2022-11-10T03:59:36.468Z,6.22
2022-11-10T04:02:22.941Z,6.26
2022-11-10T04:05:20.960Z,6.30
2022-11-10T04:08:32.938Z,6.34
2022-11-10T04:11:19.959Z,6.38
2022-11-10T04:14:11.880Z,6.42
2022-11-10T04:16:58.959Z,6.44
2022-11-10T04:19:33.028Z,6.47
2022-11-10T04:22:39.962Z,6.52
2022-11-10T04:25:13.043Z,6.54
2022-11-10T04:27:59.945Z,6.52
2022-11-10T04:30:33.022Z,6.51
2022-11-10T04:33:20.211Z,6.48
2022-11-10T04:35:59.944Z,6.49
2022-11-10T04:38:53.955Z,6.49
2022-11-10T04:41:41.949Z,6.47
2022-11-10T04:44:15.032Z,6.45
2022-11-10T04:47:01.958Z,6.45
2022-11-10T04:49:35.067Z,6.44
2022-11-10T04:52:21.956Z,6.44
2022-11-10T04:55:01.974Z,6.45
2022-11-10T04:57:49.960Z,6.44
2022-11-10T05:00:24.037Z,6.46
2022-11-10T05:03:13.975Z,6.50
2022-11-10T05:05:55.985Z,6.51
2022-11-10T05:08:50.962Z,6.51
2022-11-10T05:11:37.963Z,6.51
2022-11-10T05:14:11.047Z,6.52
2022-11-10T05:16:57.971Z,6.51
2022-11-10T05:19:31.037Z,6.52
2022-11-10T05:22:17.988Z,6.52
2022-11-10T05:24:51.139Z,6.53
2022-11-10T05:27:37.968Z,6.54
2022-11-10T05:30:18.995Z,6.55
2022-11-10T05:33:05.978Z,6.58
2022-11-10T05:35:46.998Z,6.60
2022-11-10T05:38:35.651Z,6.64
2022-11-10T05:41:18.970Z,6.64
2022-11-10T05:44:12.990Z,6.66
2022-11-10T05:47:00.010Z,6.65
2022-11-10T05:49:33.014Z,6.65
2022-11-10T05:52:19.986Z,6.65
2022-11-10T05:54:55.434Z,6.67
2022-11-10T05:57:41.983Z,6.67
2022-11-10T06:00:24.313Z,6.67
2022-11-10T06:03:18.072Z,6.68
2022-11-10T06:05:52.174Z,6.69
2022-11-10T06:08:38.997Z,6.70
2022-11-10T06:11:12.776Z,6.72
2022-11-10T06:14:06.991Z,6.73
2022-11-10T06:17:01.001Z,6.73
2022-11-10T06:19:47.984Z,6.74
2022-11-10T06:22:27.073Z,6.75
2022-11-10T06:25:14.996Z,6.77
2022-11-10T06:27:58.019Z,6.78
2022-11-10T06:30:45.009Z,6.76
2022-11-10T06:33:25.223Z,6.77
2022-11-10T06:36:12.019Z,6.78
2022-11-10T06:38:52.004Z,6.79
2022-11-10T06:41:40.008Z,6.79
2022-11-10T06:44:13.175Z,6.80
2022-11-10T06:47:03.019Z,6.84
2022-11-10T06:49:36.089Z,6.85
2022-11-10T06:52:23.003Z,6.91
2022-11-10T06:54:56.171Z,6.95
2022-11-10T06:57:47.020Z,7.00
2022-11-10T07:00:28.019Z,7.05
2022-11-10T07:03:26.013Z,7.09
2022-11-10T07:06:13.031Z,7.10
2022-11-10T07:08:53.030Z,7.09
2022-11-10T07:11:46.998Z,7.08
2022-11-10T07:14:41.035Z,7.06
2022-11-10T07:17:35.010Z,7.07
2022-11-10T07:20:22.035Z,7.10
2022-11-10T07:23:03.040Z,7.11
2022-11-10T07:25:50.046Z,7.14
2022-11-10T07:28:27.297Z,7.16
2022-11-10T07:31:15.022Z,7.16
2022-11-10T07:33:55.052Z,7.17
2022-11-10T07:36:42.019Z,7.19
2022-11-10T07:39:22.047Z,7.20
2022-11-10T07:42:16.025Z,7.20
2022-11-10T07:45:03.016Z,7.22
2022-11-10T07:47:36.134Z,7.21
2022-11-10T07:50:24.030Z,7.24
2022-11-10T07:53:04.054Z,7.26
2022-11-10T07:55:58.031Z,7.29
2022-11-10T07:58:45.063Z,7.34
2022-11-10T08:01:25.076Z,7.35
2022-11-10T08:04:12.022Z,7.36
2022-11-10T08:06:52.112Z,7.36
2022-11-10T08:09:46.052Z,7.37
2022-11-10T08:12:40.047Z,7.41
2022-11-10T08:15:34.046Z,7.46
2022-11-10T08:18:35.276Z,7.52
2022-11-10T08:21:25.047Z,7.56
2022-11-10T08:24:05.033Z,7.64
2022-11-10T08:26:52.049Z,7.72
2022-11-10T08:29:25.115Z,7.81
2022-11-10T08:32:14.062Z,7.87
2022-11-10T08:34:47.145Z,7.92
2022-11-10T08:37:37.061Z,7.95
2022-11-10T08:40:10.182Z,7.94
2022-11-10T08:43:08.052Z,7.98
2022-11-10T08:45:53.070Z,8.04
2022-11-10T08:48:47.046Z,8.09
2022-11-10T08:51:41.082Z,8.16
2022-11-10T08:54:28.053Z,8.22
2022-11-10T08:57:11.070Z,8.28
2022-11-10T09:00:05.061Z,8.33
2022-11-10T09:02:52.071Z,8.41
2022-11-10T09:05:25.209Z,8.45
2022-11-10T09:08:13.080Z,8.47
2022-11-10T09:10:58.087Z,8.54
2022-11-10T09:13:45.111Z,8.59
2022-11-10T09:16:25.053Z,8.65
2022-11-10T09:19:20.177Z,8.69
2022-11-10T09:22:07.071Z,8.76
2022-11-10T09:24:42.106Z,8.82
2022-11-10T09:27:29.064Z,8.88
2022-11-10T09:30:02.205Z,8.90
2022-11-10T09:32:53.103Z,8.92
2022-11-10T09:35:26.178Z,8.98
2022-11-10T09:38:13.087Z,9.02
2022-11-10T09:41:16.072Z,9.06
2022-11-10T09:44:04.094Z,9.10
2022-11-10T09:46:43.224Z,9.13
2022-11-10T09:50:00.096Z,9.13
2022-11-10T09:52:39.202Z,9.16
2022-11-10T09:55:54.100Z,9.18
2022-11-10T09:58:40.098Z,9.19
2022-11-10T10:01:42.132Z,9.22
2022-11-10T10:04:50.565Z,9.23
2022-11-10T10:07:55.202Z,9.25
2022-11-10T10:10:51.249Z,9.20
2022-11-10T10:13:51.085Z,9.20
2022-11-10T10:16:38.197Z,9.21
2022-11-10T10:19:40.088Z,9.19
2022-11-10T10:22:33.405Z,9.19
2022-11-10T10:25:27.098Z,9.18
2022-11-10T10:28:27.494Z,9.17
2022-11-10T10:31:24.113Z,9.15
2022-11-10T10:34:05.091Z,9.14
2022-11-10T10:36:53.115Z,9.14
2022-11-10T10:39:48.112Z,9.12
2022-11-10T10:42:47.126Z,9.08
2022-11-10T10:45:36.149Z,9.07
2022-11-10T10:48:16.185Z,9.07
2022-11-10T10:51:10.114Z,9.06
2022-11-10T10:53:57.108Z,9.07
2022-11-10T10:56:37.207Z,9.08
2022-11-10T10:59:29.105Z,9.09
2022-11-10T11:02:02.284Z,9.10
2022-11-10T11:04:49.116Z,9.11
2022-11-10T11:07:32.523Z,9.09
2022-11-10T11:10:35.141Z,9.07
2022-11-10T11:13:30.226Z,9.07
2022-11-10T11:16:24.174Z,9.08
2022-11-10T11:19:11.112Z,9.08
2022-11-10T11:22:09.147Z,9.08
2022-11-10T11:25:34.121Z,9.07
2022-11-10T11:28:36.213Z,9.09
2022-11-10T11:31:28.184Z,9.08
2022-11-10T11:34:24.203Z,9.11
2022-11-10T11:37:28.125Z,9.15
2022-11-10T11:40:07.270Z,9.18
2022-11-10T11:42:57.154Z,9.20
2022-11-10T11:45:50.181Z,9.23
2022-11-10T11:48:53.139Z,9.23
2022-11-10T11:51:49.247Z,9.25
2022-11-10T11:54:46.186Z,9.28
2022-11-10T11:57:55.304Z,9.29
2022-11-10T12:00:35.180Z,9.31
2022-11-10T12:03:59.142Z,9.33
2022-11-10T12:07:22.186Z,9.37
2022-11-10T12:10:39.322Z,9.39
2022-11-10T12:13:29.214Z,9.37
2022-11-10T12:16:29.321Z,9.37
2022-11-10T12:19:31.216Z,9.38
2022-11-10T12:22:39.337Z,9.41
2022-11-10T12:25:52.185Z,9.43
2022-11-10T12:28:32.280Z,9.45
2022-11-10T12:31:30.184Z,9.41
2022-11-10T12:34:15.187Z,9.40
2022-11-10T12:37:04.186Z,9.40
2022-11-10T12:40:00.186Z,9.41
2022-11-10T12:42:50.188Z,9.40
2022-11-10T12:45:42.183Z,9.40
2022-11-10T12:48:30.183Z,9.39
2022-11-10T12:51:11.256Z,9.41
2022-11-10T12:53:58.185Z,9.43
2022-11-10T12:56:56.606Z,9.45
2022-11-10T12:59:46.185Z,9.44
2022-11-10T13:02:45.301Z,9.42
2022-11-10T13:05:43.210Z,9.41
2022-11-10T13:08:27.438Z,9.38
2022-11-10T13:11:20.214Z,9.34
2022-11-10T13:14:05.435Z,9.35
2022-11-10T13:17:03.220Z,9.36
2022-11-10T13:20:27.908Z,9.37
2022-11-10T13:23:30.187Z,9.39
2022-11-10T13:26:15.354Z,9.38
2022-11-10T13:29:11.233Z,9.35
2022-11-10T13:32:00.289Z,9.34
2022-11-10T13:34:39.324Z,9.35
2022-11-10T13:37:57.226Z,9.35
2022-11-10T13:40:31.085Z,9.37
2022-11-10T13:43:21.438Z,9.36
2022-11-10T13:46:01.219Z,9.37
2022-11-10T13:49:05.225Z,9.36
2022-11-10T13:52:23.221Z,9.37
2022-11-10T13:55:58.192Z,9.35
2022-11-10T13:58:50.210Z,9.36
2022-11-10T14:01:23.336Z,9.38
2022-11-10T14:04:11.269Z,9.41
2022-11-10T14:06:52.702Z,9.44
2022-11-10T14:09:47.259Z,9.46
2022-11-10T14:12:51.225Z,9.47
2022-11-10T14:15:58.408Z,9.50
2022-11-10T14:19:01.224Z,9.50
2022-11-10T14:22:03.228Z,9.50
2022-11-10T14:25:27.203Z,9.49
2022-11-10T14:28:40.201Z,9.50
2022-11-10T14:31:32.219Z,9.47
2022-11-10T14:34:06.341Z,9.46
2022-11-10T14:37:03.280Z,9.45
2022-11-10T14:39:50.187Z,9.45
2022-11-10T14:42:33.277Z,9.44
2022-11-10T14:45:31.268Z,9.44
2022-11-10T14:48:06.331Z,9.43
2022-11-10T14:50:53.289Z,9.43
2022-11-10T14:53:44.206Z,9.39
2022-11-10T14:56:38.275Z,9.35
2022-11-10T14:59:14.327Z,9.32
2022-11-10T15:02:09.333Z,9.30
2022-11-10T15:04:46.014Z,9.26
2022-11-10T15:07:33.267Z,9.25
2022-11-10T15:10:26.288Z,9.24
2022-11-10T15:13:32.289Z,9.20
2022-11-10T15:16:37.353Z,9.19
2022-11-10T15:19:31.262Z,9.16
2022-11-10T15:22:43.264Z,9.13
2022-11-10T15:25:32.293Z,9.12
2022-11-10T15:28:09.382Z,9.12
2022-11-10T15:31:05.357Z,9.10
2022-11-10T15:33:42.326Z,9.08
2022-11-10T15:36:29.307Z,9.06
2022-11-10T15:39:23.372Z,9.04
2022-11-10T15:42:20.281Z,8.99
2022-11-10T15:44:53.341Z,8.96
2022-11-10T15:47:40.288Z,8.94
2022-11-10T15:50:18.330Z,8.90
2022-11-10T15:53:05.270Z,8.87
2022-11-10T15:55:45.264Z,8.83
2022-11-10T15:58:34.288Z,8.81
2022-11-10T16:01:08.418Z,8.76
2022-11-10T16:03:55.273Z,8.71
2022-11-10T16:06:37.346Z,8.67
2022-11-10T16:09:31.270Z,8.62
2022-11-10T16:12:27.268Z,8.58
2022-11-10T16:15:02.647Z,8.54
2022-11-10T16:17:49.269Z,8.50
2022-11-10T16:20:22.403Z,8.44
2022-11-10T16:23:09.309Z,8.37
2022-11-10T16:25:43.353Z,8.36
2022-11-10T16:28:33.314Z,8.32
2022-11-10T16:31:13.266Z,8.26
2022-11-10T16:34:00.290Z,8.19
2022-11-10T16:36:38.987Z,8.13
2022-11-10T16:39:26.284Z,8.06
2022-11-10T16:42:06.286Z,8.01
2022-11-10T16:45:06.287Z,7.97
2022-11-10T16:47:56.290Z,7.89
2022-11-10T16:50:37.808Z,7.84
2022-11-10T16:53:32.334Z,7.76
2022-11-10T16:56:05.384Z,7.70
2022-11-10T16:58:53.327Z,7.62
2022-11-10T17:01:38.385Z,7.56
2022-11-10T17:04:32.509Z,7.48
2022-11-10T17:07:22.338Z,7.45
2022-11-10T17:09:56.381Z,7.40
2022-11-10T17:12:43.330Z,7.39
2022-11-10T17:15:24.656Z,7.33
2022-11-10T17:18:12.329Z,7.28
2022-11-10T17:20:47.428Z,7.21
2022-11-10T17:23:36.410Z,7.15
2022-11-10T17:26:16.330Z,7.08
2022-11-10T17:29:04.333Z,7.00
2022-11-10T17:31:44.327Z,6.95
2022-11-10T17:34:32.343Z,6.88
2022-11-10T17:37:06.375Z,6.81
2022-11-10T17:39:53.330Z,6.74
2022-11-10T17:42:26.379Z,6.69
2022-11-10T17:45:23.339Z,6.62
2022-11-10T17:47:57.490Z,6.59
2022-11-10T17:50:47.325Z,6.54
2022-11-10T17:53:32.376Z,6.52
2022-11-10T17:56:19.342Z,6.47
2022-11-10T17:58:53.541Z,6.44
2022-11-10T18:01:40.358Z,6.41
2022-11-10T18:04:14.476Z,6.39
2022-11-10T18:07:04.708Z,6.37
2022-11-10T18:09:38.388Z,6.36
2022-11-10T18:12:27.934Z,6.35
2022-11-10T18:15:08.333Z,6.35
2022-11-10T18:18:02.394Z,6.37
2022-11-10T18:20:57.335Z,6.36
2022-11-10T18:23:44.340Z,6.36
2022-11-10T18:26:17.877Z,6.38
2022-11-10T18:29:04.341Z,6.39
2022-11-10T18:31:44.337Z,6.38
2022-11-10T18:34:31.332Z,6.35
2022-11-10T18:37:04.406Z,6.33
2022-11-10T18:39:51.316Z,6.31
2022-11-10T18:42:31.352Z,6.27
2022-11-10T18:45:19.331Z,6.22
2022-11-10T18:47:52.400Z,6.18
2022-11-10T18:50:39.347Z,6.15
2022-11-10T18:53:12.399Z,6.13
2022-11-10T18:56:02.331Z,6.10
2022-11-10T18:58:35.418Z,6.07
2022-11-10T19:01:22.384Z,6.04
2022-11-10T19:03:56.431Z,6.02
2022-11-10T19:06:43.363Z,6.01
2022-11-10T19:09:26.425Z,6.01
2022-11-10T19:12:13.350Z,6.01
2022-11-10T19:14:54.345Z,6.01
2022-11-10T19:17:50.409Z,6.01
2022-11-10T19:20:37.321Z,6.02
2022-11-10T19:23:10.414Z,6.02
2022-11-10T19:26:06.334Z,6.03
2022-11-10T19:28:39.503Z,6.04
2022-11-10T19:31:29.346Z,6.05
2022-11-10T19:34:04.414Z,6.04
2022-11-10T19:36:54.423Z,6.04
2022-11-10T19:39:27.400Z,6.03
2022-11-10T19:42:17.328Z,6.04
2022-11-10T19:44:50.422Z,6.04
2022-11-10T19:47:37.348Z,6.05
2022-11-10T19:50:10.495Z,6.05
2022-11-10T19:52:57.332Z,6.04
2022-11-10T19:55:30.429Z,6.03
2022-11-10T19:58:17.368Z,6.05
2022-11-10T20:01:02.385Z,6.03
2022-11-10T20:03:56.381Z,5.98
2022-11-10T20:06:43.496Z,5.93
2022-11-10T20:09:16.462Z,5.91
2022-11-10T20:12:03.344Z,5.86
2022-11-10T20:14:36.446Z,5.85
2022-11-10T20:17:38.415Z,5.79
2022-11-10T20:20:25.344Z,5.77
2022-11-10T20:22:58.434Z,5.76
2022-11-10T20:25:46.412Z,5.75
2022-11-10T20:28:26.389Z,5.74
2022-11-10T20:31:19.363Z,5.73
2022-11-10T20:34:03.379Z,5.73
2022-11-10T20:36:57.366Z,5.68
2022-11-10T20:39:44.393Z,5.68
2022-11-10T20:42:24.393Z,5.67
2022-11-10T20:45:18.407Z,5.67
2022-11-10T20:48:05.377Z,5.65
2022-11-10T20:50:38.476Z,5.62
2022-11-10T20:53:25.680Z,5.60
2022-11-10T20:56:15.245Z,5.57
2022-11-10T20:59:09.346Z,5.54
2022-11-10T21:02:03.416Z,5.52
2022-11-10T21:04:57.375Z,5.50
2022-11-10T21:07:51.373Z,5.49
2022-11-10T21:10:38.391Z,5.52
2022-11-10T21:13:11.461Z,5.52
2022-11-10T21:16:15.270Z,5.54
2022-11-10T21:19:10.381Z,5.51
2022-11-10T21:21:58.384Z,5.48
2022-11-10T21:24:31.508Z,5.47
2022-11-10T21:27:19.390Z,5.44
2022-11-10T21:29:59.382Z,5.44
2022-11-10T21:32:46.388Z,5.43
2022-11-10T21:35:19.474Z,5.43
2022-11-10T21:38:06.386Z,5.46
2022-11-10T21:40:47.402Z,5.49
2022-11-10T21:43:34.379Z,5.52
2022-11-10T21:46:14.575Z,5.53
2022-11-10T21:49:07.134Z,5.52
2022-11-10T21:51:40.468Z,5.53
2022-11-10T21:54:27.388Z,5.54
2022-11-10T21:57:07.375Z,5.52
2022-11-10T22:00:01.398Z,5.51
2022-11-10T22:02:48.395Z,5.49
2022-11-10T22:05:21.480Z,5.46
2022-11-10T22:08:08.402Z,5.45
2022-11-10T22:10:59.936Z,5.43
2022-11-10T22:14:04.397Z,5.39
2022-11-10T22:17:11.099Z,5.35
2022-11-10T22:19:57.412Z,5.30
2022-11-10T22:22:30.460Z,5.29
2022-11-10T22:25:17.413Z,5.29
2022-11-10T22:27:50.462Z,5.28
2022-11-10T22:30:37.394Z,5.28
2022-11-10T22:33:28.702Z,5.26
2022-11-10T22:36:21.394Z,5.23
2022-11-10T22:39:03.570Z,5.21
2022-11-10T22:42:17.407Z,5.20
2022-11-10T22:45:04.405Z,5.21
2022-11-10T22:47:56.214Z,5.21
2022-11-10T22:50:43.416Z,5.18
2022-11-10T22:53:16.503Z,5.16
2022-11-10T22:56:06.398Z,5.17
2022-11-10T22:58:39.493Z,5.16
2022-11-10T23:01:26.481Z,5.18
2022-11-10T23:03:59.496Z,5.15
2022-11-10T23:06:46.454Z,5.15
2022-11-10T23:09:19.485Z,5.13
2022-11-10T23:12:06.421Z,5.13
2022-11-10T23:14:39.485Z,5.15
2022-11-10T23:17:33.430Z,5.17
2022-11-10T23:20:20.413Z,5.19
2022-11-10T23:22:53.514Z,5.20
2022-11-10T23:25:40.448Z,5.18
2022-11-10T23:28:13.498Z,5.18
2022-11-10T23:31:00.424Z,5.18
2022-11-10T23:33:33.922Z,5.17
2022-11-10T23:36:22.446Z,5.17
2022-11-10T23:38:55.526Z,5.16
2022-11-10T23:41:42.422Z,5.17
2022-11-10T23:44:15.522Z,5.19
2022-11-10T23:47:02.446Z,5.17
2022-11-10T23:49:35.517Z,5.18
2022-11-10T23:52:22.428Z,5.17
2022-11-10T23:54:55.521Z,5.16
2022-11-10T23:57:42.445Z,5.14
